Time;durP1;ratioP1;P1;durP2;ratioP2;P2;SDS_P1;SDS_P2;PMS_P1;PMS_P2;Temp;Humidity;BMP_temperature;BMP_pressure;BME280_temperature;BME280_humidity;BME280_pressure;Samples;Min_cycle;Max_cycle;Signal;HPM_P1;HPM_P2
2023/09/16 00:02:22;;;;;;;1.75;1.45;;;;;;;22.35;53.08;93454.19;4844237;29;20049;-94
2023/09/16 00:04:48;;;;;;;3.55;2.10;;;;;;;22.35;52.81;93456.94;4828157;29;20478;-94
2023/09/16 00:07:14;;;;;;;2.20;1.80;;;;;;;22.34;53.05;93456.22;4828059;29;20041;-93
2023/09/16 00:09:40;;;;;;;2.30;2.10;;;;;;;22.34;52.90;93455.47;4832186;29;20059;-94
2023/09/16 00:12:06;;;;;;;2.47;1.80;;;;;;;22.33;52.93;93449.22;4828124;29;20052;-94
2023/09/16 00:14:31;;;;;;;1.90;1.70;;;;;;;22.33;52.65;93449.22;4821262;29;20093;-94
2023/09/16 00:17:00;;;;;;;2.17;1.80;;;;;;;22.33;52.94;93449.22;4828003;29;20057;-94
2023/09/16 00:19:25;;;;;;;2.28;1.95;;;;;;;22.34;52.89;93453.47;4835179;29;20069;-94
2023/09/16 00:21:51;;;;;;;2.38;2.10;;;;;;;22.32;52.93;93450.50;4846242;29;20552;-95
2023/09/16 00:24:18;;;;;;;2.17;1.98;;;;;;;22.33;52.73;93451.25;4845148;29;20044;-94
2023/09/16 00:26:43;;;;;;;3.13;1.88;;;;;;;22.34;52.74;93458.22;4827949;29;20038;-94
2023/09/16 00:29:09;;;;;;;2.97;2.08;;;;;;;22.33;53.12;93451.97;4847349;29;20068;-94
2023/09/16 00:31:36;;;;;;;3.33;2.15;;;;;;;22.32;52.85;93447.75;4846019;29;20056;-93
2023/09/16 00:34:02;;;;;;;2.25;2.05;;;;;;;22.32;52.68;93452.50;4846192;29;20041;-94
2023/09/16 00:36:28;;;;;;;2.60;2.40;;;;;;;22.34;52.75;93444.44;4829227;29;20052;-94
2023/09/16 00:38:53;;;;;;;2.47;2.10;;;;;;;22.33;52.99;93445.72;4827645;29;20664;-93
2023/09/16 00:41:19;;;;;;;3.30;2.08;;;;;;;22.32;52.87;93442.22;4826983;29;20148;-94
2023/09/16 00:43:47;;;;;;;2.15;1.73;;;;;;;22.32;52.79;93444.25;4828117;29;20441;-93
2023/09/16 00:46:13;;;;;;;2.47;1.85;;;;;;;22.31;52.86;93443.50;4831034;29;20034;-94
2023/09/16 00:48:39;;;;;;;1.85;1.65;;;;;;;22.32;53.04;93455.25;4830751;29;20029;-93
2023/09/16 00:51:05;;;;;;;2.70;1.65;;;;;;;22.30;52.91;93458.56;4829622;29;20064;-94
2023/09/16 00:53:30;;;;;;;1.88;1.67;;;;;;;22.32;52.81;93452.50;4829060;29;20045;-93
2023/09/16 00:55:56;;;;;;;2.40;2.08;;;;;;;22.29;52.82;93446.09;4827228;29;20065;-93
2023/09/16 00:58:21;;;;;;;3.00;1.85;;;;;;;22.31;52.85;93449.00;4826347;29;20042;-94
2023/09/16 01:00:47;;;;;;;1.85;1.73;;;;;;;22.32;52.88;93435.97;4841691;29;20045;-93
2023/09/16 01:03:14;;;;;;;2.20;1.80;;;;;;;22.30;53.05;93438.56;4845729;29;20037;-94
2023/09/16 01:05:39;;;;;;;1.70;1.60;;;;;;;22.28;52.96;93444.59;4843683;29;20052;-93
2023/09/16 01:08:05;;;;;;;1.60;1.50;;;;;;;22.28;52.83;93432.84;4844530;29;20493;-94
2023/09/16 01:10:32;;;;;;;4.60;1.88;;;;;;;22.30;53.11;93444.06;4844773;29;20485;-92
2023/09/16 01:12:58;;;;;;;2.63;1.95;;;;;;;22.28;52.93;93441.09;4845322;29;20633;-92
2023/09/16 01:15:27;;;;;;;2.55;2.00;;;;;;;22.28;53.02;93430.84;4844700;29;20041;-94
2023/09/16 01:18:15;;;;;;;3.58;1.92;;;;;;;22.29;53.07;93434.31;4838958;29;20050;-93
2023/09/16 01:20:43;;;;;;;2.03;1.60;;;;;;;22.27;52.96;93434.84;4822388;29;20108;-93
2023/09/16 01:23:09;;;;;;;2.17;1.98;;;;;;;22.28;52.93;93433.59;4829195;29;20048;-93
2023/09/16 01:25:34;;;;;;;3.22;2.28;;;;;;;22.28;52.88;93425.31;4826972;29;20061;-94
2023/09/16 01:28:00;;;;;;;2.00;1.80;;;;;;;22.27;52.89;93429.34;4826985;29;20040;-94
2023/09/16 01:30:27;;;;;;;1.70;1.50;;;;;;;22.27;53.01;93423.09;4826556;29;20132;-93
2023/09/16 01:32:57;;;;;;;2.30;1.80;;;;;;;22.26;53.03;93432.63;4826681;29;20072;-94
2023/09/16 01:35:23;;;;;;;2.30;1.70;;;;;;;22.27;53.01;93423.84;4830448;29;20049;-94
2023/09/16 01:37:48;;;;;;;2.03;1.80;;;;;;;22.27;52.72;93429.34;4826317;29;20055;-93
2023/09/16 01:40:14;;;;;;;2.13;1.75;;;;;;;22.28;52.64;93419.81;4830984;29;20064;-94
2023/09/16 01:42:41;;;;;;;2.42;2.17;;;;;;;22.27;52.85;93423.84;4826606;29;20129;-92
2023/09/16 01:45:07;;;;;;;2.33;1.98;;;;;;;22.27;52.84;93420.34;4826184;29;20087;-94
2023/09/16 01:47:33;;;;;;;3.13;2.30;;;;;;;22.26;52.98;93418.88;4827429;29;20079;-94
2023/09/16 01:49:59;;;;;;;2.47;1.75;;;;;;;22.25;52.87;93428.41;4830279;29;20128;-94
2023/09/16 01:52:26;;;;;;;2.22;1.70;;;;;;;22.28;52.92;93425.31;4838298;29;20165;-94
2023/09/16 01:54:52;;;;;;;3.05;2.28;;;;;;;22.26;52.88;93422.38;4847457;29;20053;-93
2023/09/16 01:57:17;;;;;;;2.58;1.85;;;;;;;22.26;52.80;93421.63;4826279;29;20125;-94
2023/09/16 01:59:43;;;;;;;1.48;1.38;;;;;;;22.27;52.87;93429.34;4826953;29;20044;-94
2023/09/16 02:02:08;;;;;;;2.65;2.38;;;;;;;22.26;52.77;93425.13;4825724;29;20372;-94
2023/09/16 02:04:34;;;;;;;2.03;1.80;;;;;;;22.26;52.95;93419.63;4828399;29;20030;-93
2023/09/16 02:06:59;;;;;;;3.00;2.40;;;;;;;22.25;52.91;93429.16;4828219;29;20105;-94
2023/09/16 02:09:25;;;;;;;2.03;1.58;;;;;;;22.27;52.77;93423.09;4826439;29;20042;-94
2023/09/16 02:11:50;;;;;;;2.08;1.80;;;;;;;22.27;52.90;93434.13;4840732;29;20045;-93
2023/09/16 02:14:18;;;;;;;1.60;1.45;;;;;;;22.25;52.81;93431.16;4843410;29;20136;-93
2023/09/16 02:16:44;;;;;;;2.30;1.88;;;;;;;22.25;52.80;93433.91;4826354;29;20038;-93
2023/09/16 02:19:11;;;;;;;1.80;1.50;;;;;;;22.25;52.82;93423.63;4828416;29;20072;-94
2023/09/16 02:21:38;;;;;;;2.80;1.88;;;;;;;22.24;52.78;93430.41;4826409;29;20076;-93
2023/09/16 02:24:04;;;;;;;1.90;1.67;;;;;;;22.25;52.97;93437.41;4824758;29;20133;-95
2023/09/16 02:26:29;;;;;;;2.72;1.88;;;;;;;22.23;53.09;93420.69;4837143;29;20394;-93
2023/09/16 02:28:55;;;;;;;2.53;2.03;;;;;;;22.23;52.80;93417.94;4825706;29;20123;-95
2023/09/16 02:31:21;;;;;;;2.40;1.95;;;;;;;22.23;52.72;93423.44;4839942;29;20072;-94
2023/09/16 02:33:47;;;;;;;2.72;2.13;;;;;;;22.23;52.68;93412.41;4844259;29;20053;-94
2023/09/16 02:36:13;;;;;;;2.47;1.77;;;;;;;22.21;52.74;93415.69;4842432;29;20528;-93
2023/09/16 02:38:38;;;;;;;2.47;1.90;;;;;;;22.23;52.49;93415.16;4843991;29;20063;-93
2023/09/16 02:41:04;;;;;;;2.53;2.28;;;;;;;22.22;52.67;93408.19;4841467;29;20325;-94
2023/09/16 02:43:32;;;;;;;2.83;1.92;;;;;;;22.22;52.67;93410.94;4844695;29;20043;-93
2023/09/16 02:45:58;;;;;;;2.33;1.90;;;;;;;22.22;52.63;93411.69;4840786;29;20041;-95
2023/09/16 02:48:23;;;;;;;1.77;1.60;;;;;;;22.23;52.43;93417.94;4842885;29;20487;-93
2023/09/16 02:50:49;;;;;;;2.45;2.03;;;;;;;22.24;52.66;93416.66;4824959;29;20387;-94
2023/09/16 02:53:15;;;;;;;2.20;1.73;;;;;;;22.23;52.77;93417.94;4825151;29;20090;-93
2023/09/16 02:55:41;;;;;;;2.30;2.10;;;;;;;22.22;52.64;93416.44;4826014;29;20045;-93
2023/09/16 02:58:06;;;;;;;2.67;2.08;;;;;;;22.21;52.63;93415.69;4825302;29;20101;-94
2023/09/16 03:00:32;;;;;;;2.45;1.60;;;;;;;22.21;52.76;93406.72;4824910;29;20138;-93
2023/09/16 03:02:58;;;;;;;2.60;2.00;;;;;;;22.21;52.67;93415.69;4787709;29;20038;-94
2023/09/16 03:05:23;;;;;;;2.13;1.90;;;;;;;22.20;52.61;93422.50;4781444;29;20042;-94
2023/09/16 03:07:49;;;;;;;3.42;2.42;;;;;;;22.20;52.65;93421.75;4790991;29;20034;-94
2023/09/16 03:10:15;;;;;;;1.98;1.60;;;;;;;22.20;52.76;93419.00;4804356;29;20045;-94
2023/09/16 03:12:42;;;;;;;2.30;2.10;;;;;;;22.18;52.72;93418.78;4790578;29;20046;-94
2023/09/16 03:15:13;;;;;;;2.78;1.98;;;;;;;22.20;52.54;93407.97;4802815;29;20049;-94
2023/09/16 03:17:39;;;;;;;2.00;1.80;;;;;;;22.18;52.78;93422.28;4806058;29;20034;-94
2023/09/16 03:20:05;;;;;;;2.53;2.20;;;;;;;22.17;52.66;93422.81;4798389;29;20410;-95
2023/09/16 03:22:33;;;;;;;3.67;2.03;;;;;;;22.18;52.52;93418.78;4791349;29;20437;-94
2023/09/16 03:24:59;;;;;;;1.90;1.70;;;;;;;22.17;52.84;93426.31;4790126;29;20115;-93
2023/09/16 03:27:24;;;;;;;3.83;2.30;;;;;;;22.19;52.55;93423.03;4789982;29;20045;-94
2023/09/16 03:29:50;;;;;;;2.20;2.00;;;;;;;22.18;52.42;93418.78;4805225;29;20045;-93
2023/09/16 03:32:15;;;;;;;2.10;1.90;;;;;;;22.18;52.61;93418.78;4777306;29;20047;-93
2023/09/16 03:34:41;;;;;;;2.20;1.98;;;;;;;22.19;52.39;93414.75;4817271;29;20129;-94
2023/09/16 03:37:06;;;;;;;3.35;1.95;;;;;;;22.17;52.68;93415.28;4842745;29;20472;-94
2023/09/16 03:39:32;;;;;;;2.10;1.90;;;;;;;22.19;52.64;93409.25;4843103;29;20104;-94
2023/09/16 03:41:58;;;;;;;2.45;2.00;;;;;;;22.16;52.41;93411.06;4843289;29;20041;-94
2023/09/16 03:44:23;;;;;;;1.92;1.70;;;;;;;22.16;52.88;93413.81;4842909;29;20417;-92
2023/09/16 03:46:49;;;;;;;2.40;1.90;;;;;;;22.16;52.48;93418.56;4839600;29;20061;-94
2023/09/16 03:49:15;;;;;;;2.00;1.80;;;;;;;22.15;52.67;93409.59;4837469;29;20037;-93
2023/09/16 03:51:40;;;;;;;2.33;1.70;;;;;;;22.17;52.52;93412.53;4825088;29;20038;-93
2023/09/16 03:54:06;;;;;;;2.15;1.95;;;;;;;22.15;52.53;93392.31;4824107;29;20046;-93
2023/09/16 03:56:33;;;;;;;1.80;1.65;;;;;;;22.17;52.56;93400.78;4827940;29;20517;-93
2023/09/16 03:58:58;;;;;;;2.10;1.90;;;;;;;22.17;52.46;93404.28;4824423;29;20097;-94
2023/09/16 04:01:24;;;;;;;2.20;1.73;;;;;;;22.16;52.25;93402.81;4828337;29;20117;-94
2023/09/16 04:03:49;;;;;;;2.28;1.77;;;;;;;22.15;52.26;93397.81;4827415;29;20037;-94
2023/09/16 04:06:15;;;;;;;2.35;1.95;;;;;;;22.15;52.47;93401.31;4835396;29;20040;-93
2023/09/16 04:08:43;;;;;;;2.60;1.95;;;;;;;22.15;52.30;93397.81;4824339;29;20046;-94
2023/09/16 04:11:09;;;;;;;3.13;1.88;;;;;;;22.14;52.47;93399.09;4823675;29;20037;-93
2023/09/16 04:13:35;;;;;;;2.33;2.13;;;;;;;22.15;52.64;93395.06;4825263;29;20371;-95
2023/09/16 04:16:00;;;;;;;2.00;1.80;;;;;;;22.14;52.57;93394.34;4839552;29;20057;-93
2023/09/16 04:18:26;;;;;;;2.15;1.95;;;;;;;22.15;52.38;93395.06;4831276;29;20040;-95
2023/09/16 04:20:55;;;;;;;2.85;1.70;;;;;;;22.15;52.51;93408.84;4825927;29;20459;-95
2023/09/16 04:23:26;;;;;;;1.90;1.70;;;;;;;22.13;52.68;93406.63;4824756;29;20049;-93
2023/09/16 04:25:56;;;;;;;1.77;1.60;;;;;;;22.14;52.60;93399.84;4830590;29;20041;-94
2023/09/16 04:28:23;;;;;;;2.40;2.13;;;;;;;22.14;52.42;93407.34;4829393;29;20089;-94
2023/09/16 04:30:51;;;;;;;2.00;1.75;;;;;;;22.12;52.42;93407.88;4836548;29;20045;-93
2023/09/16 04:33:17;;;;;;;1.73;1.58;;;;;;;22.13;52.21;93408.63;4826929;29;20049;-93
2023/09/16 04:35:46;;;;;;;2.28;2.05;;;;;;;22.14;52.41;93408.09;4828611;29;20060;-93
2023/09/16 04:38:12;;;;;;;2.30;1.95;;;;;;;22.13;52.52;93412.13;4827354;29;20045;-94
2023/09/16 04:40:38;;;;;;;2.35;1.92;;;;;;;22.15;52.42;93411.59;4831375;29;20049;-93
2023/09/16 04:43:04;;;;;;;2.03;1.80;;;;;;;22.13;52.44;93411.38;4844822;29;20457;-94
2023/09/16 04:45:29;;;;;;;2.20;2.00;;;;;;;22.11;52.42;93417.44;4845422;29;20129;-93
2023/09/16 04:47:56;;;;;;;2.20;2.00;;;;;;;22.13;52.26;93414.88;4846248;29;20398;-93
2023/09/16 04:50:22;;;;;;;2.40;2.20;;;;;;;22.13;52.43;93414.13;4828787;29;20052;-93
2023/09/16 04:52:48;;;;;;;2.58;1.95;;;;;;;22.14;52.36;93412.88;4828181;29;20042;-94
2023/09/16 04:55:14;;;;;;;2.38;2.03;;;;;;;22.15;52.50;93423.34;4827287;29;20128;-94
2023/09/16 04:57:40;;;;;;;2.25;2.05;;;;;;;22.13;52.23;93420.38;4846476;29;20048;-94
2023/09/16 05:00:06;;;;;;;2.10;1.90;;;;;;;22.13;52.46;93419.66;4794003;29;20054;-93
2023/09/16 05:02:33;;;;;;;3.33;1.90;;;;;;;22.13;52.30;93420.38;4789966;29;20518;-95
2023/09/16 05:04:59;;;;;;;2.55;2.30;;;;;;;22.14;52.35;93421.13;4797251;29;20051;-93
2023/09/16 05:07:24;;;;;;;1.98;1.75;;;;;;;22.14;52.29;93416.34;4779010;29;20107;-94
2023/09/16 05:09:50;;;;;;;2.42;1.67;;;;;;;22.13;52.42;93417.63;4789746;29;20046;-95
2023/09/16 05:12:15;;;;;;;1.80;1.70;;;;;;;22.14;52.55;93416.34;4790690;29;20057;-94
2023/09/16 05:14:42;;;;;;;1.73;1.63;;;;;;;22.15;52.29;93417.84;4793089;29;20524;-93
2023/09/16 05:17:07;;;;;;;2.17;1.80;;;;;;;22.15;52.39;93417.84;4796875;29;20157;-94
2023/09/16 05:19:33;;;;;;;2.00;1.80;;;;;;;22.16;52.35;93422.06;4801461;29;20508;-94
2023/09/16 05:21:58;;;;;;;2.20;1.52;;;;;;;22.17;52.38;93417.31;4770551;29;20050;-93
2023/09/16 05:24:24;;;;;;;2.20;1.70;;;;;;;22.17;52.32;93420.81;4797364;29;20045;-93
2023/09/16 05:26:49;;;;;;;2.53;1.73;;;;;;;22.17;52.24;93423.56;4791878;29;20130;-94
2023/09/16 05:29:15;;;;;;;1.98;1.70;;;;;;;22.19;52.12;93412.00;4791551;29;20086;-95
2023/09/16 05:31:40;;;;;;;2.03;1.83;;;;;;;22.22;52.34;93416.44;4829834;29;20041;-93
2023/09/16 05:34:06;;;;;;;2.08;1.38;;;;;;;22.23;52.28;93412.41;4844363;29;20151;-93
2023/09/16 05:36:32;;;;;;;1.85;1.55;;;;;;;22.24;52.18;93422.16;4844307;29;20049;-94
2023/09/16 05:38:58;;;;;;;2.13;1.92;;;;;;;22.25;52.29;93411.88;4837232;29;20505;-94
2023/09/16 05:41:23;;;;;;;1.77;1.67;;;;;;;22.25;52.17;93412.63;4826159;29;20109;-94
2023/09/16 05:43:49;;;;;;;1.75;1.45;;;;;;;22.26;52.19;93416.84;4826502;29;20421;-92
2023/09/16 05:46:15;;;;;;;1.73;1.50;;;;;;;22.28;52.27;93417.06;4843944;29;20048;-94
2023/09/16 05:48:41;;;;;;;1.92;1.60;;;;;;;22.29;52.19;93426.81;4845477;29;20523;-93
2023/09/16 05:51:08;;;;;;;1.60;1.50;;;;;;;22.31;52.10;93423.50;4837634;29;20049;-94
2023/09/16 05:53:36;;;;;;;2.20;1.50;;;;;;;22.31;52.13;93418.72;4826779;29;20037;-93
2023/09/16 05:56:04;;;;;;;1.70;1.52;;;;;;;22.32;51.97;93419.47;4826788;29;20049;-94
2023/09/16 05:58:48;;;;;;;1.77;1.48;;;;;;;22.34;51.95;93420.41;4826999;29;20105;-93
2023/09/16 06:01:13;;;;;;;1.90;1.70;;;;;;;22.35;51.78;93424.63;4839010;29;20047;-94
2023/09/16 06:03:39;;;;;;;1.98;1.77;;;;;;;22.37;51.76;93426.84;4844641;29;20132;-94
2023/09/16 06:06:04;;;;;;;1.70;1.60;;;;;;;22.38;51.67;93431.84;4841128;29;21259;-94
2023/09/16 06:08:30;;;;;;;2.28;1.77;;;;;;;22.40;51.93;93431.31;4826854;29;20446;-93
2023/09/16 06:10:58;;;;;;;2.00;1.80;;;;;;;22.39;51.76;93430.56;4832710;29;20630;-94
2023/09/16 06:13:23;;;;;;;1.98;1.60;;;;;;;22.40;51.64;93429.28;4818315;29;20041;-94
2023/09/16 06:15:49;;;;;;;2.22;1.70;;;;;;;22.42;51.86;93431.50;4826131;29;20080;-94
2023/09/16 06:18:15;;;;;;;1.80;1.52;;;;;;;22.44;51.70;93434.47;4825739;29;20127;-94
2023/09/16 06:20:40;;;;;;;2.75;1.55;;;;;;;22.46;51.54;93423.66;4820367;29;20065;-93
2023/09/16 06:23:06;;;;;;;2.22;2.00;;;;;;;22.46;51.66;93429.91;4825124;29;20053;-95
2023/09/16 06:25:33;;;;;;;2.08;1.75;;;;;;;22.47;51.62;93420.38;4771617;29;20050;-94
2023/09/16 06:27:59;;;;;;;1.70;1.60;;;;;;;22.48;51.67;93421.09;4755928;29;20628;-94
2023/09/16 06:30:25;;;;;;;2.22;1.55;;;;;;;22.49;51.59;93419.81;4772728;29;20042;-93
2023/09/16 06:32:52;;;;;;;1.92;1.48;;;;;;;22.50;51.57;93426.81;4785351;29;20109;-93
2023/09/16 06:35:18;;;;;;;1.88;1.58;;;;;;;22.52;51.41;93413.22;4790977;29;20077;-93
2023/09/16 06:37:44;;;;;;;1.92;1.60;;;;;;;22.53;51.52;93415.44;4775549;29;20110;-94
2023/09/16 06:40:10;;;;;;;2.13;1.85;;;;;;;22.54;51.47;93408.66;4772395;29;20129;-94
2023/09/16 06:42:35;;;;;;;1.83;1.60;;;;;;;22.57;51.33;93412.34;4773136;29;20051;-93
2023/09/16 06:45:01;;;;;;;1.65;1.55;;;;;;;22.57;51.41;93409.59;4777952;29;20054;-95
2023/09/16 06:47:26;;;;;;;1.60;1.40;;;;;;;22.59;51.49;93415.31;4787924;29;20328;-94
2023/09/16 06:49:52;;;;;;;1.75;1.65;;;;;;;22.62;51.44;93413.50;4784826;29;20109;-94
2023/09/16 06:52:17;;;;;;;1.60;1.50;;;;;;;22.63;51.18;93401.94;4784568;29;20077;-93
2023/09/16 06:54:43;;;;;;;1.70;1.60;;;;;;;22.63;51.44;93404.69;4789983;29;20052;-93
2023/09/16 06:57:08;;;;;;;1.40;1.30;;;;;;;22.63;51.28;93412.97;4829177;29;20541;-94
2023/09/16 06:59:34;;;;;;;1.65;1.48;;;;;;;22.66;51.36;93408.38;4838778;29;20481;-93
2023/09/16 07:01:59;;;;;;;2.03;1.83;;;;;;;22.67;51.37;93409.88;4842988;29;20052;-93
2023/09/16 07:04:26;;;;;;;1.65;1.55;;;;;;;22.67;51.32;93413.38;4843122;29;20037;-93
2023/09/16 07:06:51;;;;;;;1.58;1.45;;;;;;;22.71;51.32;93418.53;4843008;29;20416;-94
2023/09/16 07:09:17;;;;;;;1.60;1.50;;;;;;;22.70;51.14;93417.06;4834337;29;20049;-93
2023/09/16 07:11:42;;;;;;;1.60;1.42;;;;;;;22.72;51.24;93425.53;4843133;29;20045;-94
2023/09/16 07:14:08;;;;;;;1.42;1.33;;;;;;;22.73;51.24;93421.50;4842270;29;20052;-93
2023/09/16 07:16:36;;;;;;;2.55;1.88;;;;;;;22.76;51.17;93414.88;4829739;29;20524;-94
2023/09/16 07:19:01;;;;;;;1.58;1.48;;;;;;;22.78;51.53;93423.38;4825878;29;20093;-94
2023/09/16 07:21:27;;;;;;;2.20;1.88;;;;;;;22.78;51.16;93420.63;4825910;29;20520;-94
2023/09/16 07:23:52;;;;;;;2.00;1.80;;;;;;;22.81;51.27;93419.56;4843693;29;20049;-94
2023/09/16 07:26:17;;;;;;;1.50;1.40;;;;;;;22.81;51.23;93420.28;4857998;29;20371;-94
2023/09/16 07:28:43;;;;;;;2.47;1.67;;;;;;;22.84;51.05;93421.25;4822571;29;20045;-93
2023/09/16 07:31:08;;;;;;;1.42;1.33;;;;;;;22.86;50.91;93415.91;4824937;29;20129;-93
2023/09/16 07:33:34;;;;;;;2.08;1.50;;;;;;;22.87;51.14;93404.34;4824688;29;20045;-94
2023/09/16 07:35:59;;;;;;;1.80;1.48;;;;;;;22.88;51.00;93411.34;4825106;29;20048;-94
2023/09/16 07:38:25;;;;;;;2.00;1.67;;;;;;;22.88;51.02;93419.63;4842657;29;20125;-93
2023/09/16 07:40:52;;;;;;;2.45;1.73;;;;;;;22.91;51.07;93417.81;4842948;29;20041;-94
2023/09/16 07:43:18;;;;;;;1.70;1.60;;;;;;;22.94;50.94;93416.00;4830053;29;20584;-95
2023/09/16 07:45:44;;;;;;;1.63;1.45;;;;;;;22.93;50.92;93423.53;4825144;29;20052;-94
2023/09/16 07:48:09;;;;;;;2.20;1.90;;;;;;;22.92;51.08;93421.31;4829363;29;20124;-94
2023/09/16 07:50:35;;;;;;;1.73;1.40;;;;;;;22.96;50.92;93427.19;4831286;29;20041;-94
2023/09/16 07:53:02;;;;;;;1.60;1.50;;;;;;;22.97;51.00;93423.91;4826509;29;20678;-93
2023/09/16 07:55:27;;;;;;;1.92;1.73;;;;;;;22.99;51.19;93426.09;4823861;29;20045;-93
2023/09/16 07:57:52;;;;;;;1.67;1.50;;;;;;;22.99;50.83;93431.63;4838459;29;20042;-93
2023/09/16 08:00:18;;;;;;;1.70;1.60;;;;;;;23.01;50.73;93431.81;4829327;29;20054;-93
2023/09/16 08:02:43;;;;;;;1.60;1.40;;;;;;;23.02;50.98;93438.81;4833609;29;20057;-93
2023/09/16 08:05:09;;;;;;;1.50;1.40;;;;;;;23.02;50.67;93427.78;4842112;29;20489;-93
2023/09/16 08:07:35;;;;;;;2.55;1.63;;;;;;;23.02;50.94;93434.03;4832161;29;20037;-93
2023/09/16 08:10:01;;;;;;;1.95;1.63;;;;;;;23.03;50.72;93426.50;4834680;29;20595;-94
2023/09/16 08:12:29;;;;;;;2.55;1.30;;;;;;;23.03;50.97;93427.25;4846348;29;20067;-94
2023/09/16 08:14:55;;;;;;;1.55;1.38;;;;;;;23.02;50.80;93425.78;4832667;29;20074;-94
2023/09/16 08:17:20;;;;;;;1.95;1.65;;;;;;;23.04;50.78;93422.47;4828216;29;20064;-93
2023/09/16 08:19:49;;;;;;;2.03;1.30;;;;;;;23.03;50.81;93426.50;4828278;29;20097;-95
2023/09/16 08:22:15;;;;;;;1.77;1.58;;;;;;;23.02;50.71;93425.03;4825142;29;20068;-93
2023/09/16 08:24:46;;;;;;;2.63;1.50;;;;;;;23.01;50.89;93424.28;4836266;29;20128;-93
2023/09/16 08:27:14;;;;;;;1.40;1.30;;;;;;;23.03;50.93;93424.50;4848773;29;20045;-93
2023/09/16 08:29:42;;;;;;;1.42;1.20;;;;;;;23.01;51.19;93429.81;4788724;29;20084;-94
2023/09/16 08:32:10;;;;;;;1.40;1.10;;;;;;;23.02;51.05;93431.28;4791716;29;20582;-94
2023/09/16 08:34:47;;;;;;;1.73;1.50;;;;;;;23.04;50.93;93439.03;4771056;29;20050;-94
2023/09/16 08:37:13;;;;;;;1.52;1.42;;;;;;;23.02;50.93;93431.28;4781862;29;20046;-93
2023/09/16 08:39:39;;;;;;;1.60;1.35;;;;;;;23.01;50.98;93438.09;4783854;29;20049;-94
2023/09/16 08:42:18;;;;;;;1.42;1.33;;;;;;;23.00;51.20;93435.88;4791790;29;20051;-93
2023/09/16 08:44:44;;;;;;;2.00;1.30;;;;;;;22.99;51.06;93437.88;4779284;29;20043;-93
2023/09/16 08:47:12;;;;;;;1.45;1.30;;;;;;;22.99;51.06;93440.63;4771911;29;20520;-94
2023/09/16 08:49:44;;;;;;;1.33;1.23;;;;;;;22.99;51.04;93442.66;4789083;29;20046;-94
2023/09/16 08:52:10;;;;;;;1.77;1.60;;;;;;;23.00;51.07;93444.13;4793465;29;20047;-93
2023/09/16 08:54:36;;;;;;;1.80;1.65;;;;;;;22.99;51.12;93437.88;4794489;29;20492;-93
2023/09/16 08:57:04;;;;;;;1.40;1.30;;;;;;;22.98;51.17;93441.16;4794580;29;20129;-94
2023/09/16 08:59:29;;;;;;;1.33;1.20;;;;;;;22.98;51.03;93444.66;4788631;29;20116;-92
2023/09/16 09:01:55;;;;;;;1.63;1.52;;;;;;;22.98;51.08;93436.41;4832023;29;20072;-92
2023/09/16 09:04:23;;;;;;;1.88;1.42;;;;;;;22.99;51.12;93448.16;4845655;29;20048;-94
2023/09/16 09:06:50;;;;;;;1.38;1.27;;;;;;;22.97;51.22;93450.72;4862517;29;20037;-93
2023/09/16 09:09:16;;;;;;;1.45;1.35;;;;;;;22.98;51.25;93452.94;4828870;29;20045;-94
2023/09/16 09:11:42;;;;;;;2.63;1.75;;;;;;;22.97;51.39;93445.94;4830281;29;20048;-94
2023/09/16 09:14:10;;;;;;;1.60;1.50;;;;;;;22.97;51.34;93448.69;4838206;29;20053;-94
2023/09/16 09:16:39;;;;;;;1.42;1.33;;;;;;;22.97;51.36;93442.44;4841678;29;20068;-94
2023/09/16 09:19:04;;;;;;;2.00;1.80;;;;;;;22.97;51.71;93445.22;4829902;29;20045;-93
2023/09/16 09:21:34;;;;;;;1.83;1.42;;;;;;;22.95;51.47;93451.25;4831449;29;20045;-93
2023/09/16 09:24:01;;;;;;;1.45;1.33;;;;;;;22.95;51.48;93448.50;4831027;29;20071;-95
2023/09/16 09:26:30;;;;;;;1.45;1.35;;;;;;;22.94;51.40;93449.81;4846044;29;20049;-93
2023/09/16 09:28:59;;;;;;;1.90;1.70;;;;;;;22.95;51.30;93453.31;4846910;29;20044;-93
2023/09/16 09:31:29;;;;;;;1.58;1.23;;;;;;;22.94;51.44;93451.81;4846803;29;20394;-93
2023/09/16 09:33:57;;;;;;;1.50;1.40;;;;;;;22.93;51.54;93451.09;4847726;29;20041;-94
2023/09/16 09:36:24;;;;;;;1.67;1.48;;;;;;;22.94;51.41;93440.81;4829580;29;20140;-94
2023/09/16 09:38:50;;;;;;;1.45;1.35;;;;;;;22.93;51.59;93442.81;4828284;29;20050;-92
2023/09/16 09:41:20;;;;;;;2.10;1.80;;;;;;;22.92;51.43;93443.34;4802849;29;20057;-93
2023/09/16 09:43:48;;;;;;;;;;;;;;;22.93;51.65;93436.56;4793976;29;20077;-93
2023/09/16 09:46:13;;;;;;;4.32;1.45;;;;;;;22.90;51.58;93444.63;4826160;29;19925;-93
2023/09/16 09:48:39;;;;;;;2.50;1.90;;;;;;;22.88;51.72;93438.19;4787691;29;20049;-93
2023/09/16 09:51:07;;;;;;;2.38;1.90;;;;;;;22.89;51.54;93437.63;4774175;29;20133;-93
2023/09/16 09:53:36;;;;;;;1.65;1.55;;;;;;;22.89;51.80;93439.66;4758884;29;20412;-94
2023/09/16 09:56:04;;;;;;;2.30;1.70;;;;;;;22.88;51.44;93447.19;4766695;29;20074;-93
2023/09/16 09:58:31;;;;;;;2.63;1.55;;;;;;;22.88;51.63;93436.16;4764941;29;20522;-94
2023/09/16 10:01:00;;;;;;;1.13;1.02;;;;;;;22.89;51.45;93440.41;4780381;29;20641;-93
2023/09/16 10:03:26;;;;;;;1.88;1.60;;;;;;;22.90;51.62;93436.38;4763867;29;20405;-93
2023/09/16 10:05:56;;;;;;;2.88;1.70;;;;;;;22.90;51.67;93450.16;4776213;29;20342;-94
2023/09/16 10:08:29;;;;;;;1.58;1.48;;;;;;;22.91;51.71;93448.13;4753115;29;20518;-93
2023/09/16 10:10:56;;;;;;;1.60;1.40;;;;;;;22.90;51.70;93449.41;4779952;29;20039;-93
2023/09/16 10:13:23;;;;;;;2.03;1.73;;;;;;;22.90;51.81;93446.66;4813934;29;20057;-93
2023/09/16 10:15:50;;;;;;;1.48;1.38;;;;;;;22.89;51.61;93453.44;4803884;29;20053;-94
2023/09/16 10:18:19;;;;;;;1.60;1.30;;;;;;;22.90;51.87;93438.38;4805491;29;20467;-93
2023/09/16 10:20:52;;;;;;;1.70;1.40;;;;;;;22.88;51.88;93438.91;4794569;29;20113;-94
2023/09/16 10:23:20;;;;;;;1.70;1.40;;;;;;;22.89;51.75;93434.13;4819134;29;20558;-92
2023/09/16 10:25:49;;;;;;;1.90;1.38;;;;;;;22.87;51.73;93439.47;4813427;29;20045;-94
2023/09/16 10:28:17;;;;;;;1.80;1.15;;;;;;;22.87;51.78;93442.94;4813216;29;20073;-93
2023/09/16 10:30:42;;;;;;;1.48;1.25;;;;;;;22.89;51.78;93450.69;4832385;29;20055;-92
2023/09/16 10:33:10;;;;;;;1.42;1.33;;;;;;;22.88;51.96;93435.41;4824970;29;20392;-92
2023/09/16 10:35:43;;;;;;;1.63;1.40;;;;;;;22.86;51.68;93432.47;4842752;29;20041;-95
2023/09/16 10:38:11;;;;;;;1.65;1.45;;;;;;;22.87;51.83;93436.69;4831684;29;20056;-93
2023/09/16 10:40:38;;;;;;;1.50;1.40;;;;;;;22.88;51.93;93441.66;4840134;29;20097;-93
2023/09/16 10:43:04;;;;;;;2.25;1.30;;;;;;;22.88;52.03;93429.91;4861441;29;20037;-94
2023/09/16 10:45:32;;;;;;;1.80;1.60;;;;;;;22.88;51.85;93444.44;4848024;29;20489;-93
2023/09/16 10:48:01;;;;;;;1.60;1.50;;;;;;;22.85;51.77;93434.47;4845414;29;20045;-93
2023/09/16 10:50:29;;;;;;;2.35;1.83;;;;;;;22.85;51.96;93431.72;4851121;29;20140;-93
2023/09/16 10:53:01;;;;;;;1.63;1.40;;;;;;;22.85;51.83;93440.00;4816984;29;20099;-93
2023/09/16 10:55:51;;;;;;;1.25;1.10;;;;;;;22.86;51.91;93440.72;4847208;29;20123;-94
2023/09/16 10:58:31;;;;;;;1.65;1.35;;;;;;;22.85;51.84;93447.53;4869896;29;20041;-93
2023/09/16 11:01:01;;;;;;;2.05;1.85;;;;;;;22.86;51.96;93440.72;4846289;29;20033;-93
2023/09/16 11:03:30;;;;;;;1.50;1.40;;;;;;;22.86;52.00;93438.72;4830522;29;20525;-94
2023/09/16 11:05:57;;;;;;;2.00;1.40;;;;;;;22.85;51.97;93437.22;4828538;29;20284;-94
2023/09/16 11:08:24;;;;;;;1.67;1.52;;;;;;;22.84;52.11;93432.25;4827720;29;20413;-94
2023/09/16 11:10:52;;;;;;;3.28;1.50;;;;;;;22.85;51.99;93437.22;4827404;29;20037;-94
2023/09/16 11:13:20;;;;;;;1.75;1.30;;;;;;;22.85;52.22;93430.97;4821255;29;20058;-93
2023/09/16 11:15:48;;;;;;;1.38;1.20;;;;;;;22.85;52.09;93426.22;4840823;29;20045;-94
2023/09/16 11:18:16;;;;;;;1.80;1.55;;;;;;;22.83;52.09;93431.53;4836113;29;20045;-94
2023/09/16 11:20:46;;;;;;;1.67;1.58;;;;;;;22.87;52.13;93439.47;4845142;29;20120;-94
2023/09/16 11:23:12;;;;;;;1.80;1.35;;;;;;;22.86;51.74;93429.72;4822642;29;20077;-94
2023/09/16 11:25:41;;;;;;;1.92;1.75;;;;;;;22.86;51.91;93430.44;4828472;29;20458;-94
2023/09/16 11:28:08;;;;;;;1.10;1.00;;;;;;;22.86;52.08;93429.72;4831427;29;20048;-92
2023/09/16 11:30:36;;;;;;;1.92;1.58;;;;;;;22.86;51.91;93429.72;4845420;29;20044;-93
2023/09/16 11:33:01;;;;;;;1.48;1.35;;;;;;;22.85;52.14;93428.97;4822777;29;20530;-95